Time;durP1;ratioP1;P1;durP2;ratioP2;P2;SDS_P1;SDS_P2;PMS_P1;PMS_P2;Temp;Humidity;BMP_temperature;BMP_pressure;BME280_temperature;BME280_humidity;BME280_pressure;Samples;Min_cycle;Max_cycle;Signal;HPM_P1;HPM_P2
2022/04/22 16:45:58;;;;;;;34.17;26.58;;;;;;;;;;6192848;23;20028;-77
2022/04/22 16:48:25;;;;;;;38.00;28.88;;;;;;;;;;6215528;23;20013;-78
2022/04/22 16:50:51;;;;;;;37.67;27.55;;;;;;;;;;6185140;23;20016;-77
2022/04/22 16:53:16;;;;;;;37.97;27.77;;;;;;;;;;6187106;23;20076;-79
2022/04/22 16:55:42;;;;;;;37.58;28.98;;;;;;;;;;6160054;23;20001;-78
2022/04/22 16:58:07;;;;;;;40.50;28.98;;;;;;;;;;6186346;23;20005;-85
2022/04/22 17:00:33;;;;;;;37.40;28.48;;;;;;;;;;6186114;23;20089;-84
2022/04/22 17:02:58;;;;;;;43.25;29.85;;;;;;;;;;6186444;23;20024;-85
2022/04/22 17:05:24;;;;;;;42.40;29.92;;;;;;;;;;6185248;23;20004;-79
2022/04/22 17:07:50;;;;;;;46.67;33.90;;;;;;;;;;6186409;23;20008;-82
2022/04/22 17:10:16;;;;;;;48.28;34.33;;;;;;;;;;6189061;23;20005;-79
2022/04/22 17:12:41;;;;;;;56.45;40.70;;;;;;;;;;6187714;23;20027;-82
2022/04/22 17:23:19;;;;;;;38.13;27.77;;;;;;;;;;6186240;23;20068;-80
2022/04/22 17:25:45;;;;;;;38.22;27.52;;;;;;;;;;6186245;23;20416;-79
2022/04/22 17:28:10;;;;;;;33.80;25.08;;;;;;;;;;6159711;23;20024;-82
2022/04/22 17:30:37;;;;;;;33.88;26.02;;;;;;;;;;6186230;23;20028;-82
2022/04/22 17:33:04;;;;;;;35.58;26.95;;;;;;;;;;6186224;23;20005;-85
2022/04/22 17:35:30;;;;;;;35.03;27.75;;;;;;;;;;6186029;23;20099;-80
2022/04/22 17:37:55;;;;;;;36.40;28.13;;;;;;;;;;6160184;23;20005;-78
2022/04/22 17:40:21;;;;;;;40.10;29.65;;;;;;;;;;6186173;23;20088;-79
2022/04/22 17:42:48;;;;;;;37.90;30.45;;;;;;;;;;6186499;23;20001;-83
2022/04/22 17:45:13;;;;;;;39.25;29.02;;;;;;;;;;6186357;23;20037;-79
2022/04/22 17:47:39;;;;;;;35.65;28.10;;;;;;;;;;6186135;23;20008;-86
2022/04/22 17:50:05;;;;;;;32.95;25.63;;;;;;;;;;6186188;23;20332;-87
2022/04/22 17:52:30;;;;;;;34.00;26.30;;;;;;;;;;6186164;23;20001;-78
2022/04/22 17:54:56;;;;;;;33.70;25.52;;;;;;;;;;6186210;23;20012;-78
2022/04/22 17:57:21;;;;;;;32.65;24.73;;;;;;;;;;6160310;23;20012;-81
2022/04/22 17:59:48;;;;;;;31.55;24.95;;;;;;;;;;6188050;23;20036;-79
2022/04/22 18:02:19;;;;;;;35.47;25.60;;;;;;;;;;6188301;23;20310;-79
2022/04/22 18:04:46;;;;;;;36.97;26.75;;;;;;;;;;6188124;23;20332;-83
2022/04/22 18:07:12;;;;;;;34.72;26.08;;;;;;;;;;6161598;23;20392;-80
2022/04/22 18:09:41;;;;;;;34.58;25.90;;;;;;;;;;6187821;23;20087;-79
2022/04/22 18:12:08;;;;;;;34.85;25.50;;;;;;;;;;6188113;23;20082;-82
2022/04/22 18:17:18;;;;;;;31.77;23.65;;;;;;;;;;6188067;23;20015;-80
2022/04/22 18:19:44;;;;;;;32.78;24.77;;;;;;;;;;6187821;23;20001;-81
2022/04/22 18:22:10;;;;;;;33.92;24.92;;;;;;;;;;6187746;23;20007;-79
2022/04/22 18:24:36;;;;;;;32.72;24.52;;;;;;;;;;6188182;23;20009;-81
2022/04/22 18:27:02;;;;;;;35.38;24.00;;;;;;;;;;6188059;23;20177;-78
2022/04/22 18:29:28;;;;;;;35.17;26.00;;;;;;;;;;6187787;23;20015;-78
2022/04/22 18:31:56;;;;;;;37.20;26.80;;;;;;;;;;6187968;23;20332;-79
2022/04/22 18:34:22;;;;;;;36.33;25.40;;;;;;;;;;6161287;23;20004;-82
2022/04/22 18:36:48;;;;;;;36.15;26.40;;;;;;;;;;6187852;23;20360;-84
2022/04/22 18:39:13;;;;;;;37.55;28.33;;;;;;;;;;6187482;23;20005;-79
2022/04/22 18:41:39;;;;;;;34.75;25.90;;;;;;;;;;6187537;23;20005;-84
2022/04/22 18:44:05;;;;;;;36.30;27.83;;;;;;;;;;6187606;23;20001;-81
2022/04/22 18:46:30;;;;;;;34.63;26.17;;;;;;;;;;6187766;23;20017;-82
2022/04/22 18:48:56;;;;;;;34.58;25.00;;;;;;;;;;6187813;23;20020;-81
2022/04/22 18:51:22;;;;;;;33.38;25.02;;;;;;;;;;6187644;23;20324;-83
2022/04/22 18:53:47;;;;;;;35.08;26.20;;;;;;;;;;6187510;23;20324;-81
2022/04/22 18:56:13;;;;;;;37.72;27.35;;;;;;;;;;6187616;23;20008;-81
2022/04/22 18:58:39;;;;;;;36.33;25.73;;;;;;;;;;6187497;23;20131;-84
2022/04/22 19:01:04;;;;;;;35.38;27.95;;;;;;;;;;6187439;23;20005;-81
2022/04/22 19:03:30;;;;;;;38.92;28.20;;;;;;;;;;6187541;23;20005;-82
2022/04/22 19:05:56;;;;;;;36.58;26.23;;;;;;;;;;6186025;23;20005;-82
2022/04/22 19:08:22;;;;;;;33.33;24.88;;;;;;;;;;6187369;23;20001;-81
2022/04/22 19:10:50;;;;;;;34.97;24.92;;;;;;;;;;6186842;23;20068;-81
2022/04/22 19:13:17;;;;;;;36.10;26.55;;;;;;;;;;6187215;23;20480;-82
2022/04/22 19:15:43;;;;;;;32.65;25.20;;;;;;;;;;6187346;23;20001;-80
2022/04/22 19:18:10;;;;;;;34.25;25.10;;;;;;;;;;6187273;23;20001;-81
2022/04/22 19:20:37;;;;;;;37.13;27.48;;;;;;;;;;6185823;23;20016;-84
2022/04/22 19:23:03;;;;;;;36.63;27.67;;;;;;;;;;6187557;23;20076;-82
2022/04/22 19:25:35;;;;;;;39.15;28.27;;;;;;;;;;6187655;23;20066;-81
2022/04/22 19:28:01;;;;;;;48.63;33.30;;;;;;;;;;6187293;23;20328;-87
2022/04/22 19:30:27;;;;;;;61.80;42.40;;;;;;;;;;6187331;23;20015;-83
2022/04/22 19:32:53;;;;;;;50.42;35.22;;;;;;;;;;6190094;23;20005;-83
2022/04/22 19:35:19;;;;;;;42.65;30.95;;;;;;;;;;6187721;23;20001;-84
2022/04/22 19:40:47;;;;;;;37.15;26.75;;;;;;;;;;6187369;23;20459;-80
2022/04/22 19:43:18;;;;;;;36.42;27.73;;;;;;;;;;6187335;23;20332;-81
2022/04/22 19:45:48;;;;;;;32.05;24.92;;;;;;;;;;6160545;23;20463;-82
2022/04/22 19:48:14;;;;;;;38.33;26.85;;;;;;;;;;6187600;23;20001;-81
2022/04/22 19:50:40;;;;;;;39.63;26.98;;;;;;;;;;6187360;23;20001;-81
2022/04/22 19:53:06;;;;;;;38.95;27.63;;;;;;;;;;6186933;23;20087;-82
2022/04/22 19:55:32;;;;;;;37.40;27.98;;;;;;;;;;6187013;23;19997;-85
2022/04/22 19:57:58;;;;;;;40.80;28.17;;;;;;;;;;6186941;23;20008;-82
2022/04/22 20:00:23;;;;;;;36.80;26.90;;;;;;;;;;6161254;23;20084;-81
2022/04/22 20:02:50;;;;;;;37.58;26.52;;;;;;;;;;6187545;23;20332;-84
2022/04/22 20:05:15;;;;;;;39.20;26.67;;;;;;;;;;6187363;23;20500;-83
2022/04/22 20:07:41;;;;;;;36.75;27.13;;;;;;;;;;6186944;23;20029;-81
2022/04/22 20:10:07;;;;;;;39.88;26.92;;;;;;;;;;6186735;23;20327;-83
2022/04/22 20:12:33;;;;;;;36.38;26.00;;;;;;;;;;6187169;23;20001;-81
2022/04/22 20:14:59;;;;;;;34.33;25.40;;;;;;;;;;6187089;23;20001;-81
2022/04/22 20:17:24;;;;;;;37.78;27.63;;;;;;;;;;6186853;23;20028;-81
2022/04/22 20:19:50;;;;;;;39.08;27.75;;;;;;;;;;6186724;23;20012;-82
2022/04/22 20:22:16;;;;;;;36.83;27.27;;;;;;;;;;6186369;23;20009;-81
2022/04/22 20:24:41;;;;;;;36.17;26.35;;;;;;;;;;6187215;23;20061;-82
2022/04/22 20:27:07;;;;;;;35.30;27.05;;;;;;;;;;6186749;23;20016;-82
2022/04/22 20:29:33;;;;;;;40.20;27.85;;;;;;;;;;6186752;23;20001;-83
2022/04/22 20:31:59;;;;;;;37.42;27.60;;;;;;;;;;6186933;23;20033;-81
2022/04/22 20:34:24;;;;;;;40.65;27.75;;;;;;;;;;6186766;23;20009;-81
2022/04/22 20:42:18;;;;;;;40.83;29.55;;;;;;;;;;6186635;23;20035;-81
2022/04/22 20:44:43;;;;;;;39.63;28.88;;;;;;;;;;6186903;23;20476;-81
2022/04/22 20:47:09;;;;;;;43.60;28.98;;;;;;;;;;6186706;23;20012;-81
2022/04/22 20:49:34;;;;;;;36.25;26.27;;;;;;;;;;6186670;23;20005;-81
2022/04/22 20:52:00;;;;;;;41.47;28.60;;;;;;;;;;6186786;23;20005;-81
2022/04/22 20:54:25;;;;;;;41.08;28.40;;;;;;;;;;6186883;23;20392;-84
2022/04/22 20:56:51;;;;;;;40.83;28.25;;;;;;;;;;6186502;23;20364;-83
2022/04/22 20:59:17;;;;;;;41.03;27.20;;;;;;;;;;6186858;23;20005;-81
2022/04/22 21:01:43;;;;;;;40.90;27.65;;;;;;;;;;6186462;23;20384;-81
2022/04/22 21:04:08;;;;;;;38.47;28.27;;;;;;;;;;6186355;23;20001;-81
2022/04/22 21:06:37;;;;;;;44.55;29.85;;;;;;;;;;6186426;23;20001;-81
2022/04/22 21:09:05;;;;;;;42.30;29.45;;;;;;;;;;6186727;23;20424;-82
2022/04/22 21:11:31;;;;;;;41.72;29.05;;;;;;;;;;6186304;23;20009;-80
2022/04/22 21:13:57;;;;;;;40.00;28.83;;;;;;;;;;6186577;23;20078;-81
2022/04/22 21:16:23;;;;;;;41.13;28.60;;;;;;;;;;6186208;23;20025;-81
2022/04/22 21:18:49;;;;;;;44.58;31.65;;;;;;;;;;6186226;23;20008;-81
2022/04/22 21:21:15;;;;;;;47.00;33.60;;;;;;;;;;6186032;23;20004;-81
2022/04/22 21:23:40;;;;;;;44.20;31.17;;;;;;;;;;6186144;23;20405;-80
2022/04/22 21:26:06;;;;;;;45.42;31.08;;;;;;;;;;6186196;23;20032;-80
2022/04/22 21:28:33;;;;;;;45.42;31.40;;;;;;;;;;6186356;23;20036;-81
2022/04/22 21:30:58;;;;;;;42.72;30.88;;;;;;;;;;6186075;23;20016;-81
2022/04/22 21:33:24;;;;;;;43.05;31.83;;;;;;;;;;6186039;23;20001;-81
2022/04/22 21:35:49;;;;;;;43.40;29.63;;;;;;;;;;6186094;23;20001;-80
2022/04/22 21:38:17;;;;;;;42.70;29.52;;;;;;;;;;6186497;23;20001;-80
2022/04/22 21:40:45;;;;;;;46.08;33.35;;;;;;;;;;6185837;23;20012;-80
2022/04/22 21:43:12;;;;;;;49.17;34.50;;;;;;;;;;6186149;23;20105;-80
2022/04/22 21:45:40;;;;;;;45.50;32.65;;;;;;;;;;6185741;23;20448;-80
2022/04/22 21:48:06;;;;;;;49.20;34.97;;;;;;;;;;6186470;23;20028;-81
2022/04/22 21:50:33;;;;;;;48.83;32.55;;;;;;;;;;6185914;23;20005;-80
2022/04/22 21:52:59;;;;;;;45.33;31.83;;;;;;;;;;6186326;23;20449;-82
2022/04/22 21:55:26;;;;;;;42.83;31.20;;;;;;;;;;6186457;23;20017;-82
2022/04/22 21:57:52;;;;;;;49.05;32.20;;;;;;;;;;6185905;23;20001;-82
2022/04/22 22:00:20;;;;;;;49.08;33.25;;;;;;;;;;6185799;23;20016;-80
2022/04/22 22:02:49;;;;;;;47.85;32.85;;;;;;;;;;6186038;23;20012;-79
2022/04/22 22:05:16;;;;;;;46.92;31.67;;;;;;;;;;6186261;23;20084;-80
2022/04/22 22:07:42;;;;;;;44.10;30.85;;;;;;;;;;6186185;23;20005;-84
2022/04/22 22:10:07;;;;;;;44.30;30.10;;;;;;;;;;6185963;23;20009;-81
2022/04/22 22:12:33;;;;;;;45.45;30.90;;;;;;;;;;6186018;23;20005;-81
2022/04/22 22:14:59;;;;;;;45.88;32.75;;;;;;;;;;6185883;23;20001;-81
2022/04/22 22:17:24;;;;;;;47.47;33.20;;;;;;;;;;6184242;23;20018;-81
2022/04/22 22:19:50;;;;;;;47.50;33.22;;;;;;;;;;6185836;23;20429;-80
2022/04/22 22:22:15;;;;;;;48.65;32.33;;;;;;;;;;6186214;23;20306;-83
2022/04/22 22:24:41;;;;;;;47.15;32.45;;;;;;;;;;6186269;23;20053;-80
2022/04/22 22:27:06;;;;;;;45.55;32.33;;;;;;;;;;6159415;23;20013;-83
2022/04/22 22:29:32;;;;;;;49.33;34.13;;;;;;;;;;6185878;23;20008;-81
2022/04/22 22:31:57;;;;;;;48.13;33.63;;;;;;;;;;6186009;23;20059;-81
2022/04/22 22:34:23;;;;;;;44.33;31.35;;;;;;;;;;6185514;23;20381;-84
2022/04/22 22:36:48;;;;;;;51.15;33.83;;;;;;;;;;6185835;23;20071;-81
2022/04/22 22:39:14;;;;;;;44.42;31.70;;;;;;;;;;6185834;23;20008;-82
